Time;durP1;ratioP1;P1;durP2;ratioP2;P2;SDS_P1;SDS_P2;PMS_P1;PMS_P2;Temp;Humidity;BMP_temperature;BMP_pressure;BME280_temperature;BME280_humidity;BME280_pressure;Samples;Min_cycle;Max_cycle;Signal;HPM_P1;HPM_P2
2023/09/11 00:00:48;;;;;;;10.97;9.33;;;21.70;75.80;;;;;;5082069;28;20273;-59
2023/09/11 00:03:15;;;;;;;10.70;9.70;;;21.60;75.70;;;;;;5072421;28;20189;-59
2023/09/11 00:05:43;;;;;;;12.90;9.63;;;21.60;75.80;;;;;;5073762;28;20285;-59
2023/09/11 00:08:29;;;;;;;16.67;10.33;;;21.50;76.00;;;;;;5071081;28;20204;-59
2023/09/11 00:11:00;;;;;;;12.37;10.00;;;21.50;76.20;;;;;;5072301;28;20258;-59
2023/09/11 00:13:27;;;;;;;10.70;9.60;;;21.50;76.30;;;;;;5071576;28;20725;-59
2023/09/11 00:15:54;;;;;;;11.47;9.80;;;21.50;76.40;;;;;;5074609;28;20264;-59
2023/09/11 00:18:23;;;;;;;11.03;9.60;;;21.50;76.60;;;;;;5074487;28;20212;-59
2023/09/11 00:20:51;;;;;;;11.13;10.13;;;21.50;76.70;;;;;;5076445;28;20212;-59
2023/09/11 00:23:18;;;;;;;12.30;10.83;;;21.50;77.40;;;;;;5078406;28;20650;-59
2023/09/11 00:25:45;;;;;;;13.23;10.53;;;21.50;76.90;;;;;;5075655;28;20279;-59
2023/09/11 00:28:12;;;;;;;11.60;10.37;;;21.50;76.90;;;;;;5077509;28;20209;-59
2023/09/11 00:30:40;;;;;;;12.63;10.60;;;21.50;76.80;;;;;;5081780;28;20206;-59
2023/09/11 00:33:07;;;;;;;12.03;10.83;;;21.40;76.80;;;;;;5077580;28;20599;-59
2023/09/11 00:35:34;;;;;;;11.40;10.30;;;21.40;76.90;;;;;;5077969;28;20220;-59
2023/09/11 00:38:02;;;;;;;13.43;12.13;;;21.40;77.00;;;;;;5079623;28;20235;-59
2023/09/11 00:40:29;;;;;;;12.60;10.57;;;21.40;76.90;;;;;;5075253;28;20190;-59
2023/09/11 00:42:56;;;;;;;15.40;11.33;;;21.30;77.00;;;;;;5075489;28;20280;-59
2023/09/11 00:45:23;;;;;;;11.90;10.80;;;21.30;77.20;;;;;;5077087;28;20197;-59
2023/09/11 00:47:50;;;;;;;12.63;11.07;;;21.30;77.40;;;;;;5079268;28;20206;-59
2023/09/11 00:50:18;;;;;;;13.13;10.80;;;21.20;77.90;;;;;;5083006;28;20263;-59
2023/09/11 00:52:46;;;;;;;14.43;10.93;;;21.20;77.80;;;;;;5072921;28;20194;-59
2023/09/11 00:55:13;;;;;;;13.97;11.10;;;21.20;77.90;;;;;;5071792;28;20201;-59
2023/09/11 00:57:42;;;;;;;13.27;11.57;;;21.20;78.00;;;;;;5066894;28;20671;-59
2023/09/11 01:00:09;;;;;;;15.13;12.40;;;21.20;78.00;;;;;;5060655;28;20276;-59
2023/09/11 01:02:36;;;;;;;16.60;11.50;;;21.10;78.00;;;;;;5074046;28;20197;-59
2023/09/11 01:05:07;;;;;;;13.83;11.43;;;21.10;78.10;;;;;;5074034;28;20277;-59
2023/09/11 01:07:35;;;;;;;14.27;12.87;;;21.10;78.20;;;;;;5079242;28;20706;-59
2023/09/11 01:10:06;;;;;;;15.30;13.80;;;21.10;78.20;;;;;;5075759;28;20206;-59
2023/09/11 01:12:36;;;;;;;17.67;13.03;;;21.00;78.30;;;;;;5079231;28;20520;-59
2023/09/11 01:15:05;;;;;;;15.80;14.13;;;20.90;78.40;;;;;;5072196;28;20209;-59
2023/09/11 01:17:38;;;;;;;15.67;14.03;;;20.90;78.60;;;;;;5075412;28;20217;-59
2023/09/11 01:20:39;;;;;;;16.30;13.83;;;20.80;78.70;;;;;;5076332;28;20205;-59
2023/09/11 01:23:50;;;;;;;18.23;13.73;;;20.80;79.00;;;;;;5075344;28;20212;-59
2023/09/11 01:26:21;;;;;;;16.73;14.87;;;20.70;79.10;;;;;;5047620;28;20215;-59
2023/09/11 01:29:09;;;;;;;17.03;15.23;;;20.70;79.10;;;;;;5072736;28;20547;-59
2023/09/11 01:31:37;;;;;;;18.53;14.80;;;20.70;79.40;;;;;;5072971;28;20280;-59
2023/09/11 01:34:05;;;;;;;17.43;15.70;;;20.60;79.40;;;;;;5062912;28;20627;-59
2023/09/11 01:36:32;;;;;;;17.20;15.40;;;20.60;79.50;;;;;;5080762;28;20681;-59
2023/09/11 01:39:00;;;;;;;17.47;14.40;;;20.60;79.60;;;;;;5080109;28;20220;-59
2023/09/11 01:41:34;;;;;;;14.87;13.03;;;20.60;79.80;;;;;;5097754;28;20208;-59
2023/09/11 01:44:15;;;;;;;19.97;14.00;;;20.60;80.10;;;;;;5069473;28;20528;-59
2023/09/11 01:46:44;;;;;;;17.43;14.03;;;20.50;80.30;;;;;;5062868;28;20225;-59
2023/09/11 01:49:12;;;;;;;12.97;11.17;;;20.50;80.30;;;;;;5067522;28;20540;-59
2023/09/11 01:51:41;;;;;;;13.30;11.97;;;20.50;80.10;;;;;;5075682;28;20633;-59
2023/09/11 01:54:09;;;;;;;15.43;13.47;;;20.40;79.70;;;;;;5076520;28;20202;-59
2023/09/11 01:56:36;;;;;;;16.13;14.53;;;20.40;79.50;;;;;;5079585;28;20228;-59
2023/09/11 01:59:03;;;;;;;16.60;15.00;;;20.40;79.60;;;;;;5073313;28;20291;-59
2023/09/11 02:01:30;;;;;;;15.90;14.30;;;20.30;79.70;;;;;;5071962;28;20208;-59
2023/09/11 02:03:57;;;;;;;16.50;14.37;;;20.30;79.90;;;;;;5079041;28;20194;-59
2023/09/11 02:06:24;;;;;;;17.80;15.73;;;20.30;80.00;;;;;;5086250;28;20219;-59
2023/09/11 02:08:53;;;;;;;19.60;15.13;;;20.20;80.10;;;;;;5082303;28;20212;-59
2023/09/11 02:11:22;;;;;;;18.70;15.97;;;20.30;80.30;;;;;;5080361;28;20235;-59
2023/09/11 02:13:50;;;;;;;20.27;16.70;;;20.30;80.50;;;;;;5081528;28;20240;-59
2023/09/11 02:16:17;;;;;;;18.33;16.43;;;20.20;80.50;;;;;;5080037;28;20213;-59
2023/09/11 02:18:44;;;;;;;17.13;15.43;;;20.20;80.70;;;;;;5076639;28;20553;-59
2023/09/11 02:21:11;;;;;;;16.70;15.03;;;20.20;80.70;;;;;;5081216;28;20551;-59
2023/09/11 02:23:38;;;;;;;16.50;14.90;;;20.20;80.70;;;;;;5082564;28;20652;-59
2023/09/11 02:26:05;;;;;;;18.47;16.57;;;20.20;80.70;;;;;;5080777;28;20189;-59
2023/09/11 02:28:32;;;;;;;19.47;16.60;;;20.20;80.70;;;;;;5087840;28;20232;-59
2023/09/11 02:30:59;;;;;;;19.27;17.47;;;20.20;80.70;;;;;;5084924;28;20533;-60
2023/09/11 02:33:26;;;;;;;21.90;16.63;;;20.20;80.70;;;;;;5080200;28;20190;-59
2023/09/11 02:35:55;;;;;;;18.17;16.27;;;20.20;80.60;;;;;;5071011;28;20681;-59
2023/09/11 02:38:22;;;;;;;20.47;15.87;;;20.20;80.70;;;;;;5088367;28;20269;-59
2023/09/11 02:40:49;;;;;;;18.73;16.83;;;20.20;80.70;;;;;;5085988;28;20237;-59
2023/09/11 02:43:35;;;;;;;20.20;17.23;;;20.20;80.70;;;;;;5086509;28;20197;-59
2023/09/11 02:46:02;;;;;;;18.40;16.60;;;20.20;80.80;;;;;;5083858;28;20638;-59
2023/09/11 02:48:31;;;;;;;20.23;17.97;;;20.10;80.80;;;;;;5080712;28;20301;-59
2023/09/11 02:50:59;;;;;;;20.03;17.97;;;20.10;81.00;;;;;;5077804;28;20205;-59
2023/09/11 02:53:26;;;;;;;20.77;18.57;;;20.10;81.10;;;;;;5078350;28;20203;-59
2023/09/11 02:55:53;;;;;;;20.30;17.60;;;20.10;81.20;;;;;;5085376;28;20227;-59
2023/09/11 02:58:20;;;;;;;20.87;18.33;;;20.10;81.30;;;;;;5084692;28;20316;-59
2023/09/11 03:00:47;;;;;;;19.37;17.40;;;20.00;81.30;;;;;;5075146;28;20580;-59
2023/09/11 03:03:14;;;;;;;18.37;16.47;;;20.00;81.30;;;;;;5079047;28;20637;-59
2023/09/11 03:05:41;;;;;;;24.57;17.60;;;20.00;81.30;;;;;;5067187;28;20243;-59
2023/09/11 03:08:09;;;;;;;18.70;16.93;;;20.00;81.30;;;;;;5077828;28;20559;-59
2023/09/11 03:10:35;;;;;;;20.13;17.80;;;20.00;81.30;;;;;;5077751;28;20193;-59
2023/09/11 03:13:03;;;;;;;18.80;16.87;;;20.00;81.30;;;;;;5082494;28;20634;-59
2023/09/11 03:15:31;;;;;;;20.03;18.13;;;20.00;81.20;;;;;;5068034;28;20209;-59
2023/09/11 03:17:59;;;;;;;19.60;17.80;;;20.00;81.10;;;;;;5083568;28;20209;-59
2023/09/11 03:20:26;;;;;;;19.17;17.20;;;20.00;81.00;;;;;;5085086;28;20271;-59
2023/09/11 03:22:53;;;;;;;20.97;17.30;;;20.00;81.00;;;;;;5061674;28;20205;-59
2023/09/11 03:25:21;;;;;;;19.17;17.17;;;19.90;81.00;;;;;;5072570;28;20205;-59
2023/09/11 03:27:49;;;;;;;20.27;17.53;;;19.90;81.20;;;;;;5081454;28;20204;-59
2023/09/11 03:30:16;;;;;;;17.37;15.77;;;19.90;81.20;;;;;;5080192;28;20291;-59
2023/09/11 03:32:44;;;;;;;20.63;16.60;;;19.90;81.30;;;;;;5081413;28;20589;-59
2023/09/11 03:35:11;;;;;;;18.53;15.97;;;19.90;81.40;;;;;;5079010;28;20238;-59
2023/09/11 03:37:38;;;;;;;19.77;17.83;;;19.90;81.50;;;;;;5077834;28;20220;-59
2023/09/11 03:40:13;;;;;;;20.30;18.17;;;19.90;81.50;;;;;;5058505;28;20205;-59
2023/09/11 03:42:41;;;;;;;21.53;18.73;;;19.80;81.50;;;;;;5076793;28;20645;-59
2023/09/11 03:45:08;;;;;;;23.63;18.53;;;19.80;81.70;;;;;;5076986;28;20201;-59
2023/09/11 03:47:36;;;;;;;21.23;18.67;;;19.80;81.70;;;;;;5083107;28;20208;-59
2023/09/11 03:50:04;;;;;;;22.53;20.17;;;19.80;81.80;;;;;;5073506;28;20209;-59
2023/09/11 03:52:31;;;;;;;20.80;18.87;;;19.70;81.60;;;;;;5074453;28;20245;-59
2023/09/11 03:54:58;;;;;;;19.57;17.77;;;19.70;81.40;;;;;;5072114;28;20216;-59
2023/09/11 03:57:25;;;;;;;20.27;18.43;;;19.60;81.40;;;;;;5070344;28;20276;-59
2023/09/11 03:59:52;;;;;;;20.13;18.03;;;19.60;81.50;;;;;;5072981;28;20257;-59
2023/09/11 04:02:20;;;;;;;20.67;18.67;;;19.60;81.70;;;;;;5076221;28;20231;-59
2023/09/11 04:04:47;;;;;;;28.00;19.17;;;19.60;82.00;;;;;;5079282;28;20206;-59
2023/09/11 04:07:14;;;;;;;22.73;19.17;;;19.50;82.00;;;;;;5077841;28;20212;-59
2023/09/11 04:09:41;;;;;;;22.00;19.63;;;19.60;82.10;;;;;;5076039;28;20436;-59
2023/09/11 04:12:08;;;;;;;20.57;18.20;;;19.60;82.10;;;;;;5075797;28;20290;-59
2023/09/11 04:14:37;;;;;;;22.37;18.03;;;19.50;82.20;;;;;;5077214;28;20203;-59
2023/09/11 04:17:04;;;;;;;19.87;17.83;;;19.50;82.40;;;;;;5080515;28;20541;-59
2023/09/11 04:19:31;;;;;;;21.93;19.10;;;19.60;82.50;;;;;;5080349;28;20208;-59
2023/09/11 04:21:59;;;;;;;20.77;17.73;;;19.50;82.50;;;;;;5079808;28;20553;-59
2023/09/11 04:24:26;;;;;;;21.63;17.23;;;19.60;82.60;;;;;;5075847;28;20235;-59
2023/09/11 04:26:53;;;;;;;21.23;18.13;;;19.50;82.50;;;;;;5074502;28;20200;-59
2023/09/11 04:29:21;;;;;;;19.57;17.50;;;19.50;82.60;;;;;;5072845;28;20613;-59
2023/09/11 04:31:48;;;;;;;20.03;18.13;;;19.50;82.60;;;;;;5074500;28;20538;-59
2023/09/11 04:34:16;;;;;;;21.83;19.63;;;19.50;82.60;;;;;;5076500;28;20216;-59
2023/09/11 04:36:43;;;;;;;21.40;18.67;;;19.50;82.60;;;;;;5081103;28;20335;-59
2023/09/11 04:39:12;;;;;;;23.00;18.57;;;19.50;82.70;;;;;;5085885;28;20232;-59
2023/09/11 04:41:40;;;;;;;22.47;18.77;;;19.50;82.60;;;;;;5078081;28;20221;-59
2023/09/11 04:44:08;;;;;;;20.07;18.07;;;19.50;82.70;;;;;;5073557;28;20210;-59
2023/09/11 04:46:35;;;;;;;20.47;18.57;;;19.50;82.70;;;;;;5074210;28;20198;-59
2023/09/11 04:49:02;;;;;;;20.80;18.70;;;19.40;82.70;;;;;;5070968;28;20210;-59
2023/09/11 04:51:30;;;;;;;23.93;19.20;;;19.50;82.90;;;;;;5077636;28;20650;-59
2023/09/11 04:53:57;;;;;;;21.90;19.27;;;19.40;83.00;;;;;;5081857;28;20212;-59
2023/09/11 04:56:24;;;;;;;21.50;19.20;;;19.40;83.00;;;;;;5076699;28;20699;-59
2023/09/11 04:58:51;;;;;;;20.83;18.73;;;19.40;83.10;;;;;;5059383;28;20249;-59
2023/09/11 05:01:19;;;;;;;19.37;17.37;;;19.40;83.10;;;;;;5074358;28;20205;-59
2023/09/11 05:03:47;;;;;;;20.10;18.10;;;19.40;83.10;;;;;;5077018;28;20233;-59
2023/09/11 05:06:15;;;;;;;22.30;18.43;;;19.40;83.00;;;;;;5081860;28;20260;-59
2023/09/11 05:08:43;;;;;;;20.80;18.63;;;19.40;83.00;;;;;;5075276;28;20221;-59
2023/09/11 05:11:30;;;;;;;23.77;20.83;;;19.40;83.10;;;;;;5079974;28;20208;-59
2023/09/11 05:13:57;;;;;;;21.43;19.33;;;19.40;83.10;;;;;;5059744;28;20209;-59
2023/09/11 05:16:25;;;;;;;20.87;18.37;;;19.40;83.20;;;;;;5068929;28;20208;-59
2023/09/11 05:18:52;;;;;;;22.63;20.03;;;19.40;83.40;;;;;;5071146;28;20241;-59
2023/09/11 05:21:19;;;;;;;23.37;19.73;;;19.50;83.50;;;;;;5076853;28;20627;-59
2023/09/11 05:23:46;;;;;;;22.57;20.07;;;19.50;83.50;;;;;;5076130;28;20233;-59
2023/09/11 05:26:13;;;;;;;21.73;19.57;;;19.50;83.50;;;;;;5078983;28;20274;-59
2023/09/11 05:28:40;;;;;;;24.80;19.87;;;19.60;83.50;;;;;;5082637;28;20540;-60
2023/09/11 05:31:08;;;;;;;22.23;20.03;;;19.80;83.20;;;;;;5071525;28;20205;-59
2023/09/11 05:33:35;;;;;;;21.07;18.87;;;20.00;82.70;;;;;;5067893;28;20210;-59
2023/09/11 05:36:03;;;;;;;23.10;19.10;;;20.20;82.30;;;;;;5065944;28;20288;-59
2023/09/11 05:38:30;;;;;;;21.43;18.73;;;20.40;81.80;;;;;;5078221;28;20217;-59
2023/09/11 05:40:57;;;;;;;22.73;18.97;;;20.60;81.30;;;;;;5079016;28;20236;-59
2023/09/11 05:43:27;;;;;;;21.00;18.80;;;20.80;80.90;;;;;;5076931;28;20209;-59
2023/09/11 05:45:56;;;;;;;21.87;19.77;;;20.90;80.30;;;;;;5076826;28;20197;-59
2023/09/11 05:48:23;;;;;;;25.27;19.80;;;21.10;79.80;;;;;;5075798;28;20258;-59
2023/09/11 05:50:53;;;;;;;20.70;18.70;;;21.30;79.10;;;;;;5076304;28;20197;-59
2023/09/11 05:53:20;;;;;;;23.20;20.43;;;21.70;78.10;;;;;;5080616;28;20201;-59
2023/09/11 05:55:47;;;;;;;21.17;19.00;;;22.20;76.60;;;;;;5073451;28;20222;-59
2023/09/11 05:58:14;;;;;;;24.90;22.40;;;22.60;75.10;;;;;;5070453;28;20307;-59
2023/09/11 06:00:42;;;;;;;22.60;20.30;;;23.00;73.30;;;;;;5068697;28;20220;-59
2023/09/11 06:03:09;;;;;;;21.07;18.77;;;23.50;71.80;;;;;;5069665;28;20201;-59
2023/09/11 06:05:39;;;;;;;20.47;18.47;;;23.90;70.50;;;;;;5075604;28;20267;-59
2023/09/11 06:08:07;;;;;;;20.83;17.53;;;24.40;69.40;;;;;;5074381;28;20196;-59
2023/09/11 06:10:34;;;;;;;20.83;18.70;;;24.80;68.30;;;;;;5071938;28;20618;-60
2023/09/11 06:13:01;;;;;;;19.30;16.70;;;25.00;67.60;;;;;;5076748;28;20246;-59
2023/09/11 06:15:29;;;;;;;18.80;16.87;;;25.30;67.30;;;;;;5078065;28;20197;-59
2023/09/11 06:17:56;;;;;;;21.30;17.17;;;25.40;66.80;;;;;;5079529;28;20228;-59
2023/09/11 06:20:24;;;;;;;16.83;15.13;;;25.50;66.30;;;;;;5076376;28;20212;-59
2023/09/11 06:22:52;;;;;;;17.83;14.60;;;25.50;65.80;;;;;;5075610;28;20547;-59
2023/09/11 06:25:19;;;;;;;17.53;14.53;;;25.40;66.50;;;;;;5077458;28;20281;-59
2023/09/11 06:27:46;;;;;;;16.97;14.13;;;25.30;67.30;;;;;;5078426;28;20195;-59
2023/09/11 06:30:13;;;;;;;15.53;14.00;;;25.10;67.40;;;;;;5079371;28;20209;-59
2023/09/11 06:32:41;;;;;;;17.10;14.30;;;24.90;67.70;;;;;;5074644;28;20198;-59
2023/09/11 06:35:09;;;;;;;18.67;13.57;;;24.70;68.00;;;;;;5075435;28;20201;-59
2023/09/11 06:37:37;;;;;;;18.77;14.67;;;24.60;68.60;;;;;;5070871;28;20214;-59
2023/09/11 06:40:09;;;;;;;16.10;14.70;;;24.40;69.20;;;;;;5074971;28;20199;-59
2023/09/11 06:42:36;;;;;;;15.63;13.97;;;24.30;69.80;;;;;;5073672;28;20205;-59
2023/09/11 06:45:04;;;;;;;14.27;12.97;;;24.20;70.40;;;;;;5079350;28;20582;-59
2023/09/11 06:47:32;;;;;;;14.10;12.70;;;24.10;70.50;;;;;;5069192;28;20309;-59
2023/09/11 06:49:59;;;;;;;15.17;12.03;;;24.00;70.70;;;;;;5071570;28;20198;-59
2023/09/11 06:52:26;;;;;;;12.27;10.87;;;24.00;70.70;;;;;;5070988;28;20611;-60
2023/09/11 06:54:54;;;;;;;15.07;11.93;;;24.00;70.50;;;;;;5071161;28;20195;-59
2023/09/11 06:57:22;;;;;;;11.50;10.40;;;24.00;70.10;;;;;;5076079;28;20550;-59
2023/09/11 06:59:51;;;;;;;19.73;10.43;;;24.10;69.80;;;;;;5074586;28;20197;-59
2023/09/11 07:02:18;;;;;;;16.40;10.40;;;24.00;69.00;;;;;;5072925;28;20187;-59
2023/09/11 07:04:45;;;;;;;11.93;9.70;;;24.10;68.30;;;;;;5078547;28;20233;-59
2023/09/11 07:07:12;;;;;;;13.70;10.27;;;24.00;68.20;;;;;;5074904;28;20590;-60
2023/09/11 07:09:39;;;;;;;11.77;10.60;;;24.00;68.30;;;;;;5076822;28;20213;-60
2023/09/11 07:12:06;;;;;;;11.93;10.83;;;24.00;68.40;;;;;;5081700;28;20213;-59
2023/09/11 07:14:33;;;;;;;11.80;10.60;;;24.00;68.70;;;;;;5075715;28;20264;-60
2023/09/11 07:17:03;;;;;;;11.30;10.10;;;24.10;68.60;;;;;;5080813;28;20194;-60
2023/09/11 07:19:30;;;;;;;12.07;10.80;;;24.10;68.60;;;;;;5076289;28;20626;-60
2023/09/11 07:21:57;;;;;;;10.60;9.50;;;24.10;68.50;;;;;;5080375;28;20201;-60
2023/09/11 07:24:24;;;;;;;9.83;8.93;;;24.10;68.80;;;;;;5076436;28;20208;-60
2023/09/11 07:26:51;;;;;;;10.83;9.60;;;24.20;69.00;;;;;;5072954;28;20197;-60
2023/09/11 07:29:18;;;;;;;10.00;9.00;;;24.20;69.20;;;;;;5078904;28;20233;-60
2023/09/11 07:31:46;;;;;;;9.00;8.03;;;24.40;69.30;;;;;;5081010;28;20718;-58
2023/09/11 07:34:14;;;;;;;9.90;9.00;;;24.50;69.00;;;;;;5084809;28;20280;-60
2023/09/11 07:36:41;;;;;;;9.60;8.43;;;24.60;68.50;;;;;;5082161;28;20206;-58
2023/09/11 07:39:08;;;;;;;11.90;9.93;;;24.70;68.20;;;;;;5074085;28;20221;-58
2023/09/11 07:41:35;;;;;;;9.20;8.30;;;24.90;68.20;;;;;;5072794;28;20328;-58
2023/09/11 07:44:03;;;;;;;14.00;8.93;;;25.10;67.80;;;;;;5067046;28;20198;-57
2023/09/11 07:46:30;;;;;;;11.17;8.60;;;25.20;67.20;;;;;;5072689;28;20194;-59
2023/09/11 07:48:57;;;;;;;11.47;8.20;;;25.40;67.00;;;;;;5076110;28;20211;-59
2023/09/11 07:51:26;;;;;;;10.23;8.03;;;25.60;66.50;;;;;;5080796;28;20704;-59
2023/09/11 07:53:53;;;;;;;10.10;7.80;;;25.70;66.00;;;;;;5083472;28;20206;-58
2023/09/11 07:56:21;;;;;;;9.27;8.27;;;25.90;65.80;;;;;;5082220;28;20531;-59
2023/09/11 07:58:50;;;;;;;10.30;7.03;;;26.10;65.30;;;;;;5076477;28;20584;-59
2023/09/11 08:01:21;;;;;;;7.73;7.03;;;26.40;64.60;;;;;;5082660;28;20190;-59
2023/09/11 08:03:49;;;;;;;10.33;7.60;;;26.60;63.80;;;;;;5077301;28;20190;-59
2023/09/11 08:06:16;;;;;;;9.80;7.67;;;26.80;63.20;;;;;;5074159;28;20192;-59
2023/09/11 08:08:43;;;;;;;7.40;6.70;;;27.00;62.80;;;;;;5077768;28;20648;-59
2023/09/11 08:11:15;;;;;;;7.97;7.17;;;27.20;62.10;;;;;;5073134;28;20217;-60
2023/09/11 08:13:46;;;;;;;12.47;7.20;;;27.40;61.40;;;;;;5074546;28;20201;-60
2023/09/11 08:16:14;;;;;;;11.73;6.97;;;27.60;60.50;;;;;;5074900;28;20206;-60
2023/09/11 08:18:42;;;;;;;8.50;7.10;;;27.70;60.00;;;;;;5079180;28;20232;-60
2023/09/11 08:21:10;;;;;;;7.63;6.80;;;27.90;59.70;;;;;;5080823;28;20231;-60
2023/09/11 08:23:37;;;;;;;10.30;7.17;;;28.00;59.10;;;;;;5077537;28;20202;-60
2023/09/11 08:26:04;;;;;;;11.80;7.23;;;28.10;58.70;;;;;;5080400;28;20194;-60
2023/09/11 08:28:31;;;;;;;7.47;6.33;;;28.30;58.30;;;;;;5069893;28;20212;-60
2023/09/11 08:30:58;;;;;;;7.70;6.87;;;28.50;58.20;;;;;;5066288;28;20222;-60
2023/09/11 08:33:25;;;;;;;8.83;6.50;;;28.60;57.90;;;;;;5070440;28;20228;-59
2023/09/11 08:36:08;;;;;;;7.93;5.90;;;28.80;57.20;;;;;;5078239;28;20556;-63
2023/09/11 08:38:35;;;;;;;9.10;6.77;;;28.90;56.90;;;;;;5081375;28;20308;-62
2023/09/11 08:41:06;;;;;;;10.10;6.27;;;29.00;56.10;;;;;;5076594;28;20610;-62
2023/09/11 08:43:33;;;;;;;12.43;6.83;;;29.10;56.10;;;;;;5079757;28;20646;-62
2023/09/11 08:46:02;;;;;;;10.63;6.50;;;29.30;56.10;;;;;;5075002;28;20511;-63
2023/09/11 08:48:32;;;;;;;9.10;5.70;;;29.40;55.60;;;;;;5081543;28;20201;-61
2023/09/11 08:51:11;;;;;;;9.47;6.03;;;29.60;54.80;;;;;;5079914;28;20200;-62
2023/09/11 08:53:41;;;;;;;7.03;6.40;;;29.60;54.20;;;;;;5075605;28;20649;-62
2023/09/11 08:56:09;;;;;;;8.70;6.23;;;29.70;54.40;;;;;;5074633;28;20206;-62
2023/09/11 08:58:38;;;;;;;7.97;6.60;;;29.80;54.20;;;;;;5073770;28;20240;-62
2023/09/11 09:01:06;;;;;;;12.00;6.10;;;29.90;53.80;;;;;;5072316;28;20699;-62
2023/09/11 09:03:34;;;;;;;9.73;5.80;;;30.00;53.20;;;;;;5075778;28;20204;-62
2023/09/11 09:06:03;;;;;;;9.50;6.00;;;30.10;52.80;;;;;;5075465;28;20281;-62
2023/09/11 09:08:31;;;;;;;8.47;6.33;;;30.10;53.00;;;;;;5078004;28;20670;-62
2023/09/11 09:11:00;;;;;;;10.47;6.57;;;30.20;53.00;;;;;;5079156;28;20236;-64
2023/09/11 09:13:29;;;;;;;9.47;5.80;;;30.30;53.00;;;;;;5077994;28;20647;-64
2023/09/11 09:15:56;;;;;;;10.30;6.47;;;30.40;52.90;;;;;;5080962;28;20743;-62
2023/09/11 09:18:23;;;;;;;8.57;6.07;;;30.50;52.20;;;;;;5079419;28;20220;-63
2023/09/11 09:20:50;;;;;;;9.80;6.30;;;30.50;52.30;;;;;;5071570;28;20186;-62
2023/09/11 09:23:17;;;;;;;14.03;6.10;;;30.70;52.30;;;;;;5081219;28;20198;-61
2023/09/11 09:25:44;;;;;;;6.27;5.57;;;30.80;52.30;;;;;;5079229;28;20217;-63
2023/09/11 09:28:28;;;;;;;19.70;6.63;;;30.90;51.80;;;;;;5078819;28;20258;-64
2023/09/11 09:30:59;;;;;;;8.40;6.33;;;31.00;51.40;;;;;;5074955;28;20201;-61
2023/09/11 09:33:27;;;;;;;10.97;6.47;;;31.10;50.50;;;;;;5073249;28;20202;-61
2023/09/11 09:35:55;;;;;;;16.50;6.67;;;31.10;50.60;;;;;;5075781;28;20717;-61
2023/09/11 09:38:22;;;;;;;8.17;5.73;;;31.20;50.80;;;;;;5076290;28;20225;-63
2023/09/11 09:40:50;;;;;;;9.43;6.03;;;31.20;50.40;;;;;;5082341;28;20204;-61
2023/09/11 09:43:19;;;;;;;7.13;5.40;;;31.20;50.70;;;;;;5078264;28;20222;-62
2023/09/11 09:45:46;;;;;;;13.83;6.27;;;31.30;51.00;;;;;;5072064;28;20196;-61
2023/09/11 09:48:20;;;;;;;24.53;8.70;;;31.40;51.00;;;;;;5070911;28;20201;-61
2023/09/11 09:50:49;;;;;;;14.30;6.50;;;31.60;51.10;;;;;;5070835;28;20218;-62
2023/09/11 09:53:26;;;;;;;6.00;5.40;;;31.70;50.70;;;;;;5059779;28;20217;-62
2023/09/11 09:56:03;;;;;;;8.53;5.83;;;31.90;50.30;;;;;;5071372;28;20628;-62
2023/09/11 09:58:34;;;;;;;6.80;5.43;;;32.00;50.00;;;;;;5074186;28;20333;-62
2023/09/11 10:01:03;;;;;;;10.53;5.37;;;32.10;49.90;;;;;;5079282;28;20205;-62
2023/09/11 10:03:47;;;;;;;6.93;5.27;;;32.20;49.60;;;;;;5078647;28;20197;-62
2023/09/11 10:06:18;;;;;;;8.87;5.60;;;32.30;49.20;;;;;;5079573;28;20245;-62
2023/09/11 10:08:46;;;;;;;6.13;5.30;;;32.40;48.70;;;;;;5077243;28;20205;-62
2023/09/11 10:11:29;;;;;;;7.20;5.53;;;32.60;48.80;;;;;;5080666;28;20216;-62
2023/09/11 10:13:57;;;;;;;12.00;5.67;;;32.70;48.00;;;;;;5075314;28;20216;-61
2023/09/11 10:16:26;;;;;;;6.27;5.60;;;32.70;48.00;;;;;;5079260;28;20197;-64
2023/09/11 10:18:55;;;;;;;6.23;4.90;;;32.70;48.20;;;;;;5078626;28;20304;-61
2023/09/11 10:21:22;;;;;;;6.07;4.87;;;32.80;48.20;;;;;;5076033;28;20194;-61
2023/09/11 10:23:51;;;;;;;6.70;4.63;;;32.90;48.00;;;;;;5071540;28;20194;-62
2023/09/11 10:26:41;;;;;;;6.67;5.20;;;32.90;47.90;;;;;;5074854;28;20189;-62
2023/09/11 10:29:25;;;;;;;5.43;4.87;;;33.00;47.20;;;;;;5074725;28;20224;-62
2023/09/11 10:32:00;;;;;;;5.83;4.97;;;33.10;47.50;;;;;;5084256;28;20256;-62
2023/09/11 10:34:28;;;;;;;5.23;4.77;;;33.10;47.00;;;;;;5075816;28;20201;-63
2023/09/11 10:36:58;;;;;;;5.40;4.90;;;33.20;47.10;;;;;;5072037;28;20209;-62
2023/09/11 10:39:25;;;;;;;9.67;4.67;;;33.30;46.90;;;;;;5073362;28;20225;-62
2023/09/11 10:41:53;;;;;;;7.80;5.53;;;33.40;46.60;;;;;;5072810;28;20201;-61
2023/09/11 10:44:20;;;;;;;6.80;5.37;;;33.40;45.70;;;;;;5071574;28;20194;-63
2023/09/11 10:46:50;;;;;;;12.00;5.80;;;33.40;45.40;;;;;;5077671;28;20220;-65
2023/09/11 10:49:24;;;;;;;6.27;4.80;;;33.40;45.80;;;;;;5076459;28;20222;-63
2023/09/11 10:51:51;;;;;;;7.50;5.17;;;33.40;45.90;;;;;;5067210;28;20201;-63
2023/09/11 10:54:23;;;;;;;7.03;5.30;;;33.40;46.10;;;;;;5081921;28;20201;-66
2023/09/11 10:56:51;;;;;;;9.33;5.10;;;33.40;46.10;;;;;;5077714;28;20710;-68
2023/09/11 10:59:23;;;;;;;5.33;4.83;;;33.50;46.00;;;;;;5077845;28;20233;-66
2023/09/11 11:01:52;;;;;;;6.87;5.20;;;33.50;46.00;;;;;;5078934;28;20635;-66
2023/09/11 11:04:22;;;;;;;7.67;5.40;;;33.50;45.20;;;;;;5077372;28;20191;-67
2023/09/11 11:06:53;;;;;;;7.87;4.90;;;33.50;45.60;;;;;;5081060;28;20288;-66
2023/09/11 11:09:27;;;;;;;7.37;5.00;;;33.50;45.80;;;;;;5077672;28;20605;-68
2023/09/11 11:11:59;;;;;;;6.80;5.23;;;33.50;45.40;;;;;;5074016;28;20213;-65
2023/09/11 11:14:26;;;;;;;6.00;5.43;;;33.50;45.70;;;;;;5077655;28;20211;-67
2023/09/11 11:17:10;;;;;;;6.87;5.47;;;33.50;45.80;;;;;;5080678;28;20209;-66
2023/09/11 11:19:39;;;;;;;5.37;4.97;;;33.60;45.80;;;;;;5081766;28;20240;-66
2023/09/11 11:22:08;;;;;;;6.07;5.47;;;33.70;45.60;;;;;;5081595;28;20197;-66
2023/09/11 11:24:52;;;;;;;11.07;5.40;;;33.80;45.20;;;;;;5076089;28;20282;-66
2023/09/11 11:27:19;;;;;;;5.53;5.03;;;33.80;44.00;;;;;;5070804;28;20547;-66
2023/09/11 11:29:47;;;;;;;12.17;6.00;;;33.70;43.90;;;;;;5070583;28;20641;-66
2023/09/11 11:32:18;;;;;;;7.63;5.70;;;33.60;43.90;;;;;;5074878;28;20205;-66
2023/09/11 11:34:46;;;;;;;5.53;5.03;;;33.60;43.40;;;;;;5076131;28;20205;-66
2023/09/11 11:37:16;;;;;;;8.33;5.13;;;33.50;43.60;;;;;;5080793;28;20201;-66
2023/09/11 11:39:43;;;;;;;5.47;4.77;;;33.50;43.90;;;;;;5079235;28;20226;-66
2023/09/11 11:42:12;;;;;;;9.47;4.63;;;33.50;44.30;;;;;;5076509;28;20615;-66
2023/09/11 11:44:40;;;;;;;6.90;4.70;;;33.50;44.10;;;;;;5075514;28;20198;-66
2023/09/11 11:47:08;;;;;;;5.33;4.67;;;33.60;43.60;;;;;;5077051;28;20208;-67
2023/09/11 11:49:36;;;;;;;7.20;4.63;;;33.70;43.40;;;;;;5079970;28;20209;-67
2023/09/11 11:52:04;;;;;;;6.50;5.40;;;33.60;42.70;;;;;;5074483;28;20229;-67
2023/09/11 11:54:34;;;;;;;8.30;5.43;;;33.60;42.40;;;;;;5077252;28;20198;-66
2023/09/11 11:57:05;;;;;;;5.93;4.77;;;33.50;40.90;;;;;;5074363;28;20513;-66
2023/09/11 11:59:36;;;;;;;6.27;4.60;;;33.40;41.30;;;;;;5071880;28;20206;-67
2023/09/11 12:02:04;;;;;;;7.60;5.53;;;33.50;42.80;;;;;;5070040;28;20209;-66
2023/09/11 12:04:31;;;;;;;7.47;5.00;;;33.60;43.00;;;;;;5074892;28;20219;-66
2023/09/11 12:07:16;;;;;;;5.63;4.83;;;33.70;43.00;;;;;;5076077;28;20397;-66
2023/09/11 12:09:43;;;;;;;7.00;4.70;;;33.80;42.00;;;;;;5080807;28;20502;-66
2023/09/11 12:12:10;;;;;;;6.00;4.47;;;33.80;42.00;;;;;;5082591;28;20197;-66
2023/09/11 12:14:37;;;;;;;8.57;4.97;;;33.90;42.50;;;;;;5075916;28;20241;-66
2023/09/11 12:17:11;;;;;;;9.90;5.40;;;34.00;42.90;;;;;;5066942;28;20580;-66
2023/09/11 12:19:38;;;;;;;7.90;6.27;;;34.00;42.20;;;;;;5069959;28;20546;-66
2023/09/11 12:22:06;;;;;;;7.83;5.87;;;34.00;42.30;;;;;;5080575;28;20621;-66
2023/09/11 12:24:33;;;;;;;8.40;5.40;;;34.00;42.50;;;;;;5080654;28;20202;-66
2023/09/11 12:27:01;;;;;;;6.00;5.40;;;33.90;42.60;;;;;;5081838;28;20497;-66
2023/09/11 12:29:30;;;;;;;5.43;4.93;;;33.80;42.90;;;;;;5077627;28;20647;-66
2023/09/11 12:31:58;;;;;;;5.27;4.87;;;33.80;42.10;;;;;;5074872;28;20242;-66
2023/09/11 12:34:25;;;;;;;6.83;5.33;;;33.80;41.70;;;;;;5075596;28;20210;-66
2023/09/11 12:36:52;;;;;;;9.80;5.83;;;33.70;41.70;;;;;;5080381;28;20193;-64
2023/09/11 12:39:19;;;;;;;6.03;5.43;;;33.50;41.60;;;;;;5080895;28;20558;-64
2023/09/11 12:41:46;;;;;;;9.37;6.63;;;33.50;42.10;;;;;;5082150;28;20274;-63
2023/09/11 12:44:13;;;;;;;8.57;5.13;;;33.40;42.30;;;;;;5071618;28;20195;-63